createdAt,value
2018-03-29T00:00:22.281Z,0.80
2018-03-29T00:02:49.925Z,0.50
2018-03-29T00:05:17.474Z,0.70
2018-03-29T00:07:45.026Z,0.50
2018-03-29T00:10:12.584Z,0.60
2018-03-29T00:12:40.139Z,0.50
2018-03-29T00:15:07.722Z,0.67
2018-03-29T00:17:35.279Z,0.63
2018-03-29T00:20:02.870Z,0.70
2018-03-29T00:22:30.432Z,1.00
2018-03-29T00:24:58.014Z,0.80
2018-03-29T00:27:25.610Z,0.80
2018-03-29T00:29:53.172Z,0.77
2018-03-29T00:32:20.726Z,0.60
2018-03-29T00:34:48.287Z,0.50
2018-03-29T00:37:15.852Z,0.70
2018-03-29T00:39:43.434Z,0.60
2018-03-29T00:42:11.001Z,0.40
2018-03-29T00:44:38.557Z,0.60
2018-03-29T00:47:06.910Z,0.70
2018-03-29T00:49:34.470Z,0.93
2018-03-29T00:52:02.062Z,0.70
2018-03-29T00:54:29.623Z,0.90
2018-03-29T00:56:57.182Z,0.60
2018-03-29T00:59:24.781Z,0.60
2018-03-29T01:01:52.333Z,0.70
2018-03-29T01:04:19.930Z,0.60
2018-03-29T01:06:48.260Z,0.67
2018-03-29T01:09:15.823Z,0.73
2018-03-29T01:11:44.150Z,0.80
2018-03-29T01:14:11.701Z,1.13
2018-03-29T01:16:39.278Z,1.00
2018-03-29T01:19:06.834Z,0.60
2018-03-29T01:21:34.386Z,0.67
2018-03-29T01:24:01.936Z,1.00
2018-03-29T01:26:29.494Z,1.33
2018-03-29T01:28:57.075Z,1.00
2018-03-29T01:31:24.634Z,0.90
2018-03-29T01:33:52.186Z,0.80
2018-03-29T01:36:19.762Z,0.60
2018-03-29T01:38:47.387Z,1.33
2018-03-29T01:41:14.978Z,0.73
2018-03-29T01:43:42.535Z,0.70
2018-03-29T01:46:10.093Z,0.70
2018-03-29T01:48:37.644Z,0.60
2018-03-29T01:51:05.393Z,1.00
2018-03-29T01:53:32.969Z,0.87
2018-03-29T01:56:00.526Z,1.07
2018-03-29T01:58:28.093Z,0.90
2018-03-29T02:00:55.661Z,1.00
2018-03-29T02:03:23.228Z,0.80
2018-03-29T02:05:51.112Z,0.70
2018-03-29T02:08:18.665Z,1.00
2018-03-29T02:10:46.221Z,1.00
2018-03-29T02:13:13.783Z,0.70
2018-03-29T02:15:42.109Z,0.77
2018-03-29T02:18:09.698Z,0.80
2018-03-29T02:20:37.265Z,0.70
2018-03-29T02:23:04.834Z,0.80
2018-03-29T02:25:33.160Z,0.90
2018-03-29T02:28:00.718Z,0.60
2018-03-29T02:30:28.344Z,0.50
2018-03-29T02:32:55.924Z,0.60
2018-03-29T02:35:23.488Z,0.80
2018-03-29T02:37:51.048Z,0.60
2018-03-29T02:40:18.607Z,0.80
2018-03-29T02:42:46.210Z,0.80
2018-03-29T02:45:13.788Z,0.83
2018-03-29T02:47:41.358Z,0.80
2018-03-29T02:50:08.928Z,0.70
2018-03-29T02:52:36.490Z,0.70
2018-03-29T02:55:04.081Z,0.70
2018-03-29T02:57:31.643Z,0.50
2018-03-29T02:59:59.191Z,0.60
2018-03-29T03:02:26.783Z,0.80
2018-03-29T03:04:54.344Z,0.60
2018-03-29T03:07:21.942Z,0.90
2018-03-29T03:09:49.512Z,1.00
2018-03-29T03:12:17.102Z,0.70
2018-03-29T03:14:44.654Z,0.60
2018-03-29T03:17:12.214Z,0.57
2018-03-29T03:19:39.806Z,0.70
2018-03-29T03:22:08.126Z,0.60
2018-03-29T03:24:35.687Z,0.50
2018-03-29T03:27:03.255Z,0.80
2018-03-29T03:29:30.805Z,0.80
2018-03-29T03:31:58.387Z,0.50
2018-03-29T03:34:25.955Z,0.60
2018-03-29T03:36:53.534Z,0.80
2018-03-29T03:39:21.095Z,0.70
2018-03-29T03:41:48.665Z,0.77
2018-03-29T03:44:16.255Z,0.60
2018-03-29T03:46:43.816Z,0.67
2018-03-29T03:49:11.374Z,0.60
2018-03-29T03:51:39.699Z,0.70
2018-03-29T03:54:07.276Z,0.80
2018-03-29T03:56:34.881Z,0.77
2018-03-29T03:59:02.441Z,0.70
2018-03-29T04:01:29.998Z,0.93
2018-03-29T04:03:57.554Z,0.60
2018-03-29T04:06:25.138Z,0.70
2018-03-29T04:08:52.806Z,0.70
2018-03-29T04:11:20.374Z,0.60
2018-03-29T04:13:48.123Z,0.60
2018-03-29T04:16:15.746Z,0.70
2018-03-29T04:18:43.318Z,0.60
2018-03-29T04:21:10.904Z,0.40
2018-03-29T04:23:38.458Z,0.60
2018-03-29T04:26:06.021Z,0.73
2018-03-29T04:28:34.400Z,0.60
2018-03-29T04:31:01.952Z,0.40
2018-03-29T04:33:29.535Z,0.50
2018-03-29T04:35:57.094Z,0.90
2018-03-29T04:38:24.728Z,0.57
2018-03-29T04:40:52.278Z,0.80
2018-03-29T04:43:19.825Z,1.00
2018-03-29T04:45:47.418Z,0.50
2018-03-29T04:48:14.972Z,0.90
2018-03-29T04:50:42.634Z,0.60
2018-03-29T04:53:10.196Z,0.40
2018-03-29T04:55:37.957Z,0.60
2018-03-29T04:58:05.515Z,1.00
2018-03-29T05:00:33.109Z,0.60
2018-03-29T05:03:00.666Z,0.60
2018-03-29T05:05:28.406Z,0.60
2018-03-29T05:07:55.960Z,0.70
2018-03-29T05:10:23.518Z,0.70
2018-03-29T05:12:51.079Z,0.60
2018-03-29T05:15:18.636Z,0.80
2018-03-29T05:17:46.209Z,0.97
2018-03-29T05:20:13.809Z,0.70
2018-03-29T05:22:41.370Z,0.60
2018-03-29T05:25:09.698Z,0.83
2018-03-29T05:27:37.307Z,0.50
2018-03-29T05:30:05.640Z,0.60
2018-03-29T05:32:33.455Z,0.97
2018-03-29T05:35:01.783Z,0.70
2018-03-29T05:37:30.200Z,0.60
2018-03-29T05:39:58.518Z,0.47
2018-03-29T05:42:26.074Z,0.70
2018-03-29T05:44:53.677Z,0.90
2018-03-29T05:47:21.232Z,0.87
2018-03-29T05:49:48.849Z,1.10
2018-03-29T05:52:16.411Z,1.33
2018-03-29T05:54:43.970Z,1.03
2018-03-29T05:57:11.568Z,1.20
2018-03-29T05:59:39.129Z,1.10
2018-03-29T06:02:06.767Z,1.40
2018-03-29T06:04:34.336Z,1.30
2018-03-29T06:07:01.903Z,1.27
2018-03-29T06:09:29.507Z,1.43
2018-03-29T06:11:57.073Z,1.80
2018-03-29T06:14:24.630Z,2.10
2018-03-29T06:16:52.947Z,1.80
2018-03-29T06:19:20.501Z,1.90
2018-03-29T06:21:48.101Z,1.87
2018-03-29T06:24:15.650Z,1.77
2018-03-29T06:26:44.702Z,1.23
2018-03-29T06:29:12.371Z,1.40
2018-03-29T06:31:39.927Z,1.77
2018-03-29T06:34:07.506Z,1.43
2018-03-29T06:36:35.062Z,1.50
2018-03-29T06:39:02.614Z,1.67
2018-03-29T06:41:30.162Z,1.60
2018-03-29T06:43:58.485Z,1.83
2018-03-29T06:46:26.233Z,1.40
2018-03-29T06:48:53.782Z,2.07
2018-03-29T06:51:21.370Z,1.70
2018-03-29T06:53:48.918Z,1.30
2018-03-29T06:56:16.474Z,1.60
2018-03-29T06:58:44.054Z,1.20
2018-03-29T07:01:11.610Z,1.53
2018-03-29T07:03:39.163Z,1.50
2018-03-29T07:06:06.706Z,1.00
2018-03-29T07:08:34.265Z,1.00
2018-03-29T07:11:01.849Z,1.60
2018-03-29T07:13:29.413Z,1.50
2018-03-29T07:15:56.966Z,1.37
2018-03-29T07:18:24.515Z,1.20
2018-03-29T07:20:52.067Z,1.03
2018-03-29T07:23:19.749Z,0.80
2018-03-29T07:25:47.306Z,1.10
2018-03-29T07:28:14.866Z,0.90
2018-03-29T07:30:42.434Z,1.20
2018-03-29T07:33:09.982Z,1.10
2018-03-29T07:35:37.572Z,0.87
2018-03-29T07:38:05.132Z,0.90
2018-03-29T07:40:32.677Z,0.77
2018-03-29T07:43:00.223Z,0.80
2018-03-29T07:45:27.778Z,0.70
2018-03-29T07:47:55.377Z,0.90
2018-03-29T07:50:22.931Z,0.60
2018-03-29T07:52:50.477Z,0.50
2018-03-29T07:55:18.790Z,0.47
2018-03-29T07:57:46.377Z,0.57
2018-03-29T08:00:14.141Z,0.37
2018-03-29T08:02:41.706Z,0.70
2018-03-29T08:05:10.017Z,0.63
2018-03-29T08:07:37.587Z,0.40
2018-03-29T08:10:05.151Z,0.60
2018-03-29T08:12:32.730Z,0.50
2018-03-29T08:15:00.287Z,0.80
2018-03-29T08:17:27.894Z,0.50
2018-03-29T08:19:55.414Z,0.60
2018-03-29T08:22:22.961Z,0.60
2018-03-29T08:24:50.538Z,0.70
2018-03-29T08:27:18.089Z,0.50
2018-03-29T08:29:45.640Z,0.50
2018-03-29T08:32:13.201Z,0.60
2018-03-29T08:34:40.758Z,0.70
2018-03-29T08:37:08.331Z,0.60
2018-03-29T08:39:35.877Z,0.60
2018-03-29T08:42:03.422Z,0.60
2018-03-29T08:44:30.981Z,0.50
2018-03-29T08:46:58.533Z,0.63
2018-03-29T08:49:26.118Z,0.60
2018-03-29T08:51:53.768Z,0.80
2018-03-29T08:54:24.142Z,0.53
2018-03-29T08:56:51.702Z,0.50
2018-03-29T08:59:19.261Z,0.50
2018-03-29T09:01:46.853Z,0.60
2018-03-29T09:04:14.402Z,0.50
2018-03-29T09:06:41.953Z,0.60
2018-03-29T09:09:10.271Z,0.70
2018-03-29T09:11:37.823Z,0.77
2018-03-29T09:14:05.409Z,0.60
2018-03-29T09:16:32.971Z,0.50
2018-03-29T09:19:00.576Z,0.60
2018-03-29T09:21:28.112Z,0.70
2018-03-29T09:23:55.666Z,0.70
2018-03-29T09:26:23.241Z,0.30
2018-03-29T09:28:50.794Z,0.47
2018-03-29T09:31:18.345Z,0.50
2018-03-29T09:33:45.897Z,0.57
2018-03-29T09:36:13.447Z,0.50
2018-03-29T09:38:41.039Z,0.77
2018-03-29T09:41:08.594Z,0.57
2018-03-29T09:43:36.986Z,0.50
2018-03-29T09:46:05.299Z,0.50
2018-03-29T09:48:32.864Z,0.57
2018-03-29T09:51:00.450Z,0.60
2018-03-29T09:53:28.003Z,0.60
2018-03-29T09:55:55.562Z,0.30
2018-03-29T09:58:23.122Z,0.47
2018-03-29T10:00:51.250Z,0.53
2018-03-29T10:03:22.742Z,0.43
2018-03-29T10:05:50.302Z,0.47
2018-03-29T10:08:17.862Z,0.20
2018-03-29T10:10:45.423Z,0.30
2018-03-29T10:13:12.980Z,0.70
2018-03-29T10:15:40.572Z,0.43
2018-03-29T10:18:08.125Z,0.30
2018-03-29T10:20:35.674Z,0.30
2018-03-29T10:23:03.468Z,0.30
2018-03-29T10:25:31.784Z,0.30
2018-03-29T10:27:59.862Z,0.17
2018-03-29T10:30:28.202Z,0.40
2018-03-29T10:32:55.757Z,0.40
2018-03-29T10:35:23.419Z,0.40
2018-03-29T10:37:50.970Z,0.20
2018-03-29T10:40:18.664Z,0.30
2018-03-29T10:42:46.219Z,0.40
2018-03-29T10:45:13.766Z,0.40
2018-03-29T10:47:41.314Z,0.30
2018-03-29T10:50:09.647Z,0.30
2018-03-29T10:52:37.230Z,0.40
2018-03-29T10:55:04.787Z,0.40
2018-03-29T10:57:32.378Z,0.33
2018-03-29T10:59:59.930Z,0.40
2018-03-29T11:02:27.482Z,0.17
2018-03-29T11:04:55.073Z,0.40
2018-03-29T11:07:22.622Z,0.40
2018-03-29T11:09:50.170Z,0.53
2018-03-29T11:12:17.730Z,0.67
2018-03-29T11:14:45.283Z,0.80
2018-03-29T11:17:12.969Z,0.37
2018-03-29T11:19:41.327Z,0.50
2018-03-29T11:22:08.884Z,0.40
2018-03-29T11:24:36.443Z,0.50
2018-03-29T11:27:03.999Z,0.40
2018-03-29T11:29:31.593Z,0.63
2018-03-29T11:31:59.143Z,0.40
2018-03-29T11:34:26.702Z,0.20
2018-03-29T11:36:54.255Z,0.20
2018-03-29T11:39:21.809Z,0.40
2018-03-29T11:41:49.386Z,0.23
2018-03-29T11:44:16.945Z,0.40
2018-03-29T11:46:44.502Z,0.30
2018-03-29T11:49:12.049Z,0.50
2018-03-29T11:51:39.602Z,0.50
2018-03-29T11:54:07.234Z,0.37
2018-03-29T11:56:35.558Z,0.40
2018-03-29T11:59:03.115Z,0.70
2018-03-29T12:01:30.671Z,0.40
2018-03-29T12:03:58.223Z,0.40
2018-03-29T12:06:25.779Z,0.50
2018-03-29T12:08:53.331Z,0.50
2018-03-29T12:11:20.878Z,0.70
2018-03-29T12:13:48.431Z,0.40
2018-03-29T12:16:16.747Z,0.60
2018-03-29T12:18:44.302Z,0.30
2018-03-29T12:21:11.871Z,0.60
2018-03-29T12:23:39.422Z,0.47
2018-03-29T12:26:06.984Z,0.47
2018-03-29T12:28:34.981Z,0.57
2018-03-29T12:31:02.551Z,0.50
2018-03-29T12:33:30.136Z,0.47
2018-03-29T12:35:57.682Z,0.50
2018-03-29T12:38:25.240Z,0.40
2018-03-29T12:40:52.790Z,0.70
2018-03-29T12:43:20.342Z,0.70
2018-03-29T12:45:47.975Z,0.80
2018-03-29T12:48:15.521Z,0.70
2018-03-29T12:50:43.077Z,0.70
2018-03-29T12:53:10.630Z,0.40
2018-03-29T12:55:42.866Z,0.50
2018-03-29T12:58:11.209Z,0.43
2018-03-29T13:00:38.780Z,0.77
2018-03-29T13:03:06.375Z,0.30
2018-03-29T13:05:33.932Z,0.20
2018-03-29T13:08:01.487Z,0.50
2018-03-29T13:10:29.835Z,0.60
2018-03-29T13:12:57.394Z,0.33
2018-03-29T13:15:24.975Z,0.40
2018-03-29T13:17:52.584Z,0.50
2018-03-29T13:20:20.238Z,0.50
2018-03-29T13:22:47.837Z,0.50
2018-03-29T13:25:15.398Z,0.30
2018-03-29T13:27:43.097Z,0.40
2018-03-29T13:30:10.658Z,0.67
2018-03-29T13:32:38.225Z,0.43
2018-03-29T13:35:06.555Z,0.40
2018-03-29T13:37:34.105Z,0.33
2018-03-29T13:40:01.683Z,0.63
2018-03-29T13:42:29.250Z,0.47
2018-03-29T13:44:56.851Z,0.73
2018-03-29T13:47:24.398Z,0.80
2018-03-29T13:49:51.953Z,0.40
2018-03-29T13:52:19.537Z,0.43
2018-03-29T13:54:47.099Z,0.30
2018-03-29T13:57:14.662Z,0.93
2018-03-29T13:59:42.225Z,0.57
2018-03-29T14:02:09.780Z,0.40
2018-03-29T14:04:37.362Z,0.70
2018-03-29T14:07:04.914Z,0.40
2018-03-29T14:09:32.461Z,0.60
2018-03-29T14:12:00.021Z,0.60
2018-03-29T14:14:27.580Z,0.43
2018-03-29T14:16:55.162Z,0.50
2018-03-29T14:19:22.714Z,0.60
2018-03-29T14:21:51.291Z,0.53
2018-03-29T14:24:18.850Z,0.60
2018-03-29T14:26:46.413Z,0.50
2018-03-29T14:29:14.010Z,0.60
2018-03-29T14:31:41.565Z,0.60
2018-03-29T14:34:09.138Z,0.50
2018-03-29T14:36:36.718Z,0.50
2018-03-29T14:39:04.281Z,0.33
2018-03-29T14:41:31.897Z,0.67
2018-03-29T14:43:59.489Z,0.50
2018-03-29T14:46:27.057Z,0.87
2018-03-29T14:48:54.617Z,0.40
2018-03-29T14:51:22.178Z,0.50
2018-03-29T14:53:49.760Z,0.57
2018-03-29T14:56:17.319Z,0.57
2018-03-29T14:58:44.876Z,0.60
2018-03-29T15:01:12.432Z,0.60
2018-03-29T15:03:40.011Z,0.60
2018-03-29T15:06:07.626Z,0.50
2018-03-29T15:08:35.316Z,0.47
2018-03-29T15:11:02.861Z,0.50
2018-03-29T15:13:30.417Z,0.87
2018-03-29T15:15:57.967Z,0.60
2018-03-29T15:18:26.306Z,0.60
2018-03-29T15:20:54.137Z,0.80
2018-03-29T15:23:21.705Z,0.80
2018-03-29T15:25:49.262Z,0.90
2018-03-29T15:28:16.819Z,0.67
2018-03-29T15:30:44.416Z,0.80
2018-03-29T15:33:11.983Z,1.00
2018-03-29T15:35:39.536Z,0.60
2018-03-29T15:38:07.090Z,0.77
2018-03-29T15:40:34.657Z,0.60
2018-03-29T15:43:02.250Z,0.73
2018-03-29T15:45:29.814Z,0.90
2018-03-29T15:47:57.369Z,0.67
2018-03-29T15:50:24.950Z,0.80
2018-03-29T15:52:52.504Z,0.73
2018-03-29T15:55:20.093Z,0.90
2018-03-29T15:57:47.686Z,1.33
2018-03-29T16:00:15.230Z,1.60
2018-03-29T16:02:42.792Z,1.07
2018-03-29T16:05:11.114Z,0.77
2018-03-29T16:07:38.794Z,1.13
2018-03-29T16:10:06.398Z,1.40
2018-03-29T16:12:34.792Z,0.80
2018-03-29T16:15:02.304Z,1.30
2018-03-29T16:17:29.854Z,2.07
2018-03-29T16:19:57.445Z,0.90
2018-03-29T16:22:25.004Z,1.10
2018-03-29T16:24:52.555Z,1.03
2018-03-29T16:27:20.107Z,0.80
2018-03-29T16:29:47.658Z,0.93
2018-03-29T16:32:15.282Z,0.97
2018-03-29T16:34:42.829Z,1.03
2018-03-29T16:37:10.386Z,1.00
2018-03-29T16:39:37.969Z,1.10
2018-03-29T16:42:05.537Z,1.70
2018-03-29T16:44:33.203Z,1.37
2018-03-29T16:47:00.963Z,1.10
2018-03-29T16:49:28.509Z,1.10
2018-03-29T16:51:56.071Z,1.50
2018-03-29T16:54:23.632Z,0.87
2018-03-29T16:56:51.209Z,0.80
2018-03-29T16:59:18.764Z,0.90
2018-03-29T17:01:46.321Z,1.00
2018-03-29T17:04:13.914Z,0.80
2018-03-29T17:06:41.476Z,1.00
2018-03-29T17:09:09.105Z,0.70
2018-03-29T17:11:36.662Z,0.63
2018-03-29T17:14:04.220Z,0.90
2018-03-29T17:16:31.879Z,0.77
2018-03-29T17:18:59.428Z,0.90
2018-03-29T17:21:27.006Z,1.13
2018-03-29T17:23:54.566Z,0.90
2018-03-29T17:26:22.135Z,0.80
2018-03-29T17:28:49.689Z,0.90
2018-03-29T17:31:17.252Z,0.90
2018-03-29T17:33:44.834Z,0.40
2018-03-29T17:36:12.636Z,1.00
2018-03-29T17:38:40.198Z,0.60
2018-03-29T17:41:07.792Z,0.83
2018-03-29T17:43:35.359Z,0.67
2018-03-29T17:46:02.940Z,1.20
2018-03-29T17:48:30.689Z,1.10
2018-03-29T17:50:58.272Z,0.57
2018-03-29T17:53:25.834Z,0.80
2018-03-29T17:55:53.405Z,0.70
2018-03-29T17:58:21.786Z,1.10
2018-03-29T18:00:51.881Z,1.07
2018-03-29T18:03:20.964Z,0.53
2018-03-29T18:05:48.746Z,0.60
2018-03-29T18:08:16.872Z,1.07
2018-03-29T18:10:44.479Z,0.70
2018-03-29T18:13:12.062Z,0.77
2018-03-29T18:15:39.626Z,0.90
2018-03-29T18:18:07.182Z,1.70
2018-03-29T18:20:34.737Z,1.20
2018-03-29T18:23:03.084Z,1.37
2018-03-29T18:25:30.645Z,0.70
2018-03-29T18:27:58.220Z,0.97
2018-03-29T18:30:25.774Z,0.70
2018-03-29T18:32:53.441Z,0.70
2018-03-29T18:35:21.028Z,0.93
2018-03-29T18:37:48.577Z,0.70
2018-03-29T18:40:16.138Z,1.30
2018-03-29T18:42:43.728Z,0.60
2018-03-29T18:45:12.066Z,0.80
2018-03-29T18:47:40.388Z,0.67
2018-03-29T18:50:07.950Z,0.70
2018-03-29T18:52:35.524Z,0.80
2018-03-29T18:55:03.080Z,0.70
2018-03-29T18:57:30.634Z,0.70
2018-03-29T18:59:58.215Z,1.93
2018-03-29T19:02:25.771Z,1.10
2018-03-29T19:04:53.332Z,0.70
2018-03-29T19:07:20.899Z,0.90
2018-03-29T19:09:48.481Z,1.10
2018-03-29T19:12:16.847Z,0.70
2018-03-29T19:14:45.167Z,0.77
2018-03-29T19:17:12.721Z,1.00
2018-03-29T19:19:40.286Z,0.73
2018-03-29T19:22:07.862Z,0.70
2018-03-29T19:24:35.420Z,0.77
2018-03-29T19:27:03.027Z,0.80
2018-03-29T19:29:30.582Z,0.70
2018-03-29T19:31:58.918Z,0.70
2018-03-29T19:34:26.525Z,0.90
2018-03-29T19:36:54.078Z,0.80
2018-03-29T19:39:21.635Z,0.80
2018-03-29T19:41:49.961Z,0.80
2018-03-29T19:44:17.524Z,0.80
2018-03-29T19:46:45.114Z,1.00
2018-03-29T19:49:12.677Z,0.87
2018-03-29T19:51:41.286Z,0.60
2018-03-29T19:54:08.834Z,0.80
2018-03-29T19:56:37.295Z,0.63
2018-03-29T19:59:04.966Z,0.70
2018-03-29T20:01:32.549Z,1.00
2018-03-29T20:04:00.106Z,0.60
2018-03-29T20:06:28.435Z,0.87
2018-03-29T20:08:55.988Z,0.80
2018-03-29T20:11:23.582Z,0.77
2018-03-29T20:13:51.136Z,0.77
2018-03-29T20:16:19.481Z,0.73
2018-03-29T20:18:47.042Z,0.90
2018-03-29T20:21:14.691Z,0.60
2018-03-29T20:23:42.286Z,1.10
2018-03-29T20:26:09.866Z,0.70
2018-03-29T20:28:37.420Z,0.67
2018-03-29T20:31:04.990Z,1.07
2018-03-29T20:33:32.553Z,0.80
2018-03-29T20:36:00.145Z,0.63
2018-03-29T20:38:27.711Z,0.67
2018-03-29T20:40:55.270Z,1.00
2018-03-29T20:43:22.853Z,0.80
2018-03-29T20:45:50.424Z,0.90
2018-03-29T20:48:19.758Z,0.80
2018-03-29T20:50:47.323Z,0.80
2018-03-29T20:53:14.882Z,0.90
2018-03-29T20:55:42.455Z,1.00
2018-03-29T20:58:10.018Z,1.10
2018-03-29T21:00:37.602Z,1.03
2018-03-29T21:03:05.168Z,1.10
2018-03-29T21:05:32.778Z,0.80
2018-03-29T21:08:00.362Z,0.50
2018-03-29T21:10:27.942Z,0.80
2018-03-29T21:12:55.518Z,1.10
2018-03-29T21:15:23.083Z,1.03
2018-03-29T21:17:51.417Z,0.70
2018-03-29T21:20:18.968Z,0.50
2018-03-29T21:22:46.509Z,0.70
2018-03-29T21:25:14.846Z,0.70
2018-03-29T21:27:42.382Z,0.80
2018-03-29T21:30:09.899Z,1.00
2018-03-29T21:32:37.424Z,0.70
2018-03-29T21:35:04.989Z,0.90
2018-03-29T21:37:32.557Z,0.60
2018-03-29T21:40:00.106Z,1.37
2018-03-29T21:42:27.741Z,0.70
2018-03-29T21:44:55.237Z,0.57
2018-03-29T21:47:23.565Z,0.90
2018-03-29T21:49:51.137Z,0.97
2018-03-29T21:52:18.755Z,1.00
2018-03-29T21:54:46.251Z,0.77
2018-03-29T21:57:13.777Z,0.77
2018-03-29T21:59:41.324Z,0.80
2018-03-29T22:02:08.945Z,1.13
2018-03-29T22:04:36.444Z,1.17
2018-03-29T22:07:04.738Z,1.00
2018-03-29T22:09:33.048Z,0.70
2018-03-29T22:12:00.583Z,1.00
2018-03-29T22:14:28.907Z,1.00
2018-03-29T22:16:56.445Z,1.00
2018-03-29T22:19:23.989Z,1.07
2018-03-29T22:21:51.539Z,0.60
2018-03-29T22:24:19.078Z,0.80
2018-03-29T22:26:46.642Z,1.13
2018-03-29T22:29:14.325Z,0.83
2018-03-29T22:31:41.868Z,1.00
2018-03-29T22:34:09.398Z,0.80
2018-03-29T22:36:36.960Z,0.83
2018-03-29T22:39:06.161Z,0.80
2018-03-29T22:41:33.736Z,0.73
2018-03-29T22:44:02.137Z,0.93
2018-03-29T22:46:29.662Z,0.60
2018-03-29T22:48:57.977Z,0.90
2018-03-29T22:51:25.560Z,0.60
2018-03-29T22:53:53.108Z,0.70
2018-03-29T22:56:20.633Z,1.00
2018-03-29T22:58:48.171Z,0.60
2018-03-29T23:01:16.466Z,0.70
2018-03-29T23:03:44.034Z,0.60
2018-03-29T23:06:11.550Z,0.60
2018-03-29T23:08:39.846Z,1.00
2018-03-29T23:11:08.145Z,0.63
2018-03-29T23:13:35.674Z,0.80
2018-03-29T23:16:04.003Z,1.00
2018-03-29T23:18:31.557Z,0.70
2018-03-29T23:20:59.083Z,0.60
2018-03-29T23:23:26.637Z,0.77
2018-03-29T23:25:54.177Z,0.60
2018-03-29T23:28:22.531Z,0.87
2018-03-29T23:30:50.080Z,0.90
2018-03-29T23:33:17.606Z,0.50
2018-03-29T23:35:45.151Z,0.70
2018-03-29T23:38:12.748Z,0.73
2018-03-29T23:40:40.322Z,0.73
2018-03-29T23:43:07.857Z,0.47
2018-03-29T23:45:35.393Z,0.60
2018-03-29T23:48:03.052Z,0.60
2018-03-29T23:50:30.591Z,0.73
2018-03-29T23:52:59.022Z,0.67
2018-03-29T23:55:26.545Z,0.50
2018-03-29T23:58:06.038Z,0.60
